sensor_id;sensor_type;location;lat;lon;timestamp;pressure;altitude;pressure_sealevel;temperature;humidity
45731;BME280;31440;48.584;13.460;2023-07-30T00:00:48;96484.88;;;16.86;100.00
45731;BME280;31440;48.584;13.460;2023-07-30T00:03:53;96490.66;;;16.67;100.00
45731;BME280;31440;48.584;13.460;2023-07-30T00:06:58;96476.94;;;16.38;100.00
45731;BME280;31440;48.584;13.460;2023-07-30T00:10:03;96474.72;;;16.45;100.00
45731;BME280;31440;48.584;13.460;2023-07-30T00:13:07;96464.69;;;16.63;100.00
45731;BME280;31440;48.584;13.460;2023-07-30T00:19:18;96462.84;;;16.39;100.00
45731;BME280;31440;48.584;13.460;2023-07-30T00:22:23;96460.34;;;16.51;100.00
45731;BME280;31440;48.584;13.460;2023-07-30T00:25:27;96463.00;;;16.62;100.00
45731;BME280;31440;48.584;13.460;2023-07-30T00:28:32;96454.72;;;16.55;100.00
45731;BME280;31440;48.584;13.460;2023-07-30T00:31:38;96433.31;;;16.36;100.00
45731;BME280;31440;48.584;13.460;2023-07-30T00:34:43;96461.00;;;16.65;100.00
45731;BME280;31440;48.584;13.460;2023-07-30T00:37:48;96456.09;;;16.48;100.00
45731;BME280;31440;48.584;13.460;2023-07-30T00:40:53;96457.75;;;16.25;100.00
45731;BME280;31440;48.584;13.460;2023-07-30T00:43:59;96468.56;;;16.33;100.00
45731;BME280;31440;48.584;13.460;2023-07-30T00:47:04;96477.66;;;16.17;100.00
45731;BME280;31440;48.584;13.460;2023-07-30T00:50:10;96472.16;;;16.20;100.00
45731;BME280;31440;48.584;13.460;2023-07-30T00:53:18;96478.03;;;16.23;100.00
45731;BME280;31440;48.584;13.460;2023-07-30T00:56:24;96485.06;;;16.23;100.00
45731;BME280;31440;48.584;13.460;2023-07-30T00:59:30;96485.59;;;16.28;100.00
45731;BME280;31440;48.584;13.460;2023-07-30T01:02:37;96482.75;;;16.18;100.00
45731;BME280;31440;48.584;13.460;2023-07-30T01:05:42;96485.34;;;15.82;100.00
45731;BME280;31440;48.584;13.460;2023-07-30T01:08:48;96487.03;;;15.95;100.00
45731;BME280;31440;48.584;13.460;2023-07-30T01:11:53;96483.13;;;16.01;100.00
45731;BME280;31440;48.584;13.460;2023-07-30T01:14:58;96481.69;;;16.33;100.00
45731;BME280;31440;48.584;13.460;2023-07-30T01:18:03;96476.81;;;16.16;100.00
45731;BME280;31440;48.584;13.460;2023-07-30T01:21:10;96461.72;;;15.94;100.00
45731;BME280;31440;48.584;13.460;2023-07-30T01:24:14;96480.03;;;16.20;100.00
45731;BME280;31440;48.584;13.460;2023-07-30T01:27:24;96476.78;;;16.29;100.00
45731;BME280;31440;48.584;13.460;2023-07-30T01:30:33;96483.91;;;16.27;100.00
45731;BME280;31440;48.584;13.460;2023-07-30T01:33:40;96482.75;;;16.31;100.00
45731;BME280;31440;48.584;13.460;2023-07-30T01:36:46;96481.47;;;16.36;100.00
45731;BME280;31440;48.584;13.460;2023-07-30T01:39:51;96474.19;;;16.40;100.00
45731;BME280;31440;48.584;13.460;2023-07-30T01:42:56;96476.09;;;16.38;100.00
45731;BME280;31440;48.584;13.460;2023-07-30T01:46:01;96476.25;;;16.24;100.00
45731;BME280;31440;48.584;13.460;2023-07-30T01:49:05;96482.19;;;15.64;100.00
45731;BME280;31440;48.584;13.460;2023-07-30T01:52:10;96480.84;;;15.96;100.00
45731;BME280;31440;48.584;13.460;2023-07-30T01:55:14;96478.59;;;16.03;100.00
45731;BME280;31440;48.584;13.460;2023-07-30T01:58:19;96479.50;;;15.78;100.00
45731;BME280;31440;48.584;13.460;2023-07-30T02:01:24;96469.66;;;16.05;100.00
45731;BME280;31440;48.584;13.460;2023-07-30T02:04:29;96464.38;;;16.18;100.00
45731;BME280;31440;48.584;13.460;2023-07-30T02:07:33;96461.66;;;16.20;100.00
45731;BME280;31440;48.584;13.460;2023-07-30T02:10:38;96457.59;;;16.03;100.00
45731;BME280;31440;48.584;13.460;2023-07-30T02:13:43;96451.88;;;16.22;100.00
45731;BME280;31440;48.584;13.460;2023-07-30T02:16:49;96426.06;;;16.16;100.00
45731;BME280;31440;48.584;13.460;2023-07-30T02:19:53;96451.22;;;15.82;100.00
45731;BME280;31440;48.584;13.460;2023-07-30T02:22:58;96448.78;;;15.91;100.00
45731;BME280;31440;48.584;13.460;2023-07-30T02:26:03;96457.03;;;15.61;100.00
45731;BME280;31440;48.584;13.460;2023-07-30T02:29:07;96454.50;;;15.60;100.00
45731;BME280;31440;48.584;13.460;2023-07-30T02:35:17;96454.81;;;15.68;100.00
45731;BME280;31440;48.584;13.460;2023-07-30T02:38:22;96453.97;;;15.67;100.00
45731;BME280;31440;48.584;13.460;2023-07-30T02:41:26;96452.47;;;15.51;100.00
45731;BME280;31440;48.584;13.460;2023-07-30T02:44:31;96452.78;;;15.33;100.00
45731;BME280;31440;48.584;13.460;2023-07-30T02:47:39;96445.22;;;15.54;100.00
45731;BME280;31440;48.584;13.460;2023-07-30T02:50:44;96447.66;;;15.45;100.00
45731;BME280;31440;48.584;13.460;2023-07-30T02:53:52;96434.22;;;15.36;100.00
45731;BME280;31440;48.584;13.460;2023-07-30T02:56:57;96445.66;;;15.48;100.00
45731;BME280;31440;48.584;13.460;2023-07-30T03:00:02;96442.38;;;15.83;100.00
45731;BME280;31440;48.584;13.460;2023-07-30T03:03:10;96423.84;;;15.60;100.00
45731;BME280;31440;48.584;13.460;2023-07-30T03:06:14;96443.56;;;15.41;100.00
45731;BME280;31440;48.584;13.460;2023-07-30T03:09:21;96448.47;;;15.45;100.00
45731;BME280;31440;48.584;13.460;2023-07-30T03:12:26;96455.53;;;15.45;100.00
45731;BME280;31440;48.584;13.460;2023-07-30T03:15:32;96429.50;;;15.54;100.00
45731;BME280;31440;48.584;13.460;2023-07-30T03:18:36;96445.66;;;15.73;100.00
45731;BME280;31440;48.584;13.460;2023-07-30T03:21:41;96449.00;;;15.50;100.00
45731;BME280;31440;48.584;13.460;2023-07-30T03:24:46;96446.72;;;15.71;100.00
45731;BME280;31440;48.584;13.460;2023-07-30T03:27:51;96453.84;;;15.94;100.00
45731;BME280;31440;48.584;13.460;2023-07-30T03:30:56;96446.41;;;16.25;100.00
45731;BME280;31440;48.584;13.460;2023-07-30T03:34:01;96450.13;;;16.10;100.00
45731;BME280;31440;48.584;13.460;2023-07-30T03:40:11;96457.69;;;16.01;100.00
45731;BME280;31440;48.584;13.460;2023-07-30T03:43:16;96447.97;;;15.78;100.00
45731;BME280;31440;48.584;13.460;2023-07-30T03:46:20;96452.47;;;15.89;100.00
45731;BME280;31440;48.584;13.460;2023-07-30T03:49:25;96453.19;;;16.03;100.00
45731;BME280;31440;48.584;13.460;2023-07-30T03:52:30;96449.91;;;16.13;100.00
45731;BME280;31440;48.584;13.460;2023-07-30T03:55:35;96455.47;;;16.08;100.00
45731;BME280;31440;48.584;13.460;2023-07-30T03:58:39;96456.84;;;16.01;100.00
45731;BME280;31440;48.584;13.460;2023-07-30T04:01:44;96457.72;;;15.89;100.00
45731;BME280;31440;48.584;13.460;2023-07-30T04:04:49;96461.56;;;16.08;100.00
45731;BME280;31440;48.584;13.460;2023-07-30T04:07:55;96456.38;;;15.70;100.00
45731;BME280;31440;48.584;13.460;2023-07-30T04:10:59;96449.75;;;15.65;100.00
45731;BME280;31440;48.584;13.460;2023-07-30T04:14:04;96449.44;;;15.57;100.00
45731;BME280;31440;48.584;13.460;2023-07-30T04:17:12;96455.00;;;15.65;100.00
45731;BME280;31440;48.584;13.460;2023-07-30T04:20:16;96460.69;;;15.71;100.00
45731;BME280;31440;48.584;13.460;2023-07-30T04:23:22;96434.03;;;15.78;100.00
45731;BME280;31440;48.584;13.460;2023-07-30T04:26:26;96440.41;;;15.86;100.00
45731;BME280;31440;48.584;13.460;2023-07-30T04:29:31;96458.47;;;15.91;100.00
45731;BME280;31440;48.584;13.460;2023-07-30T04:32:36;96472.22;;;15.82;100.00
45731;BME280;31440;48.584;13.460;2023-07-30T04:35:41;96474.00;;;15.68;100.00
45731;BME280;31440;48.584;13.460;2023-07-30T04:38:46;96471.59;;;15.91;100.00
45731;BME280;31440;48.584;13.460;2023-07-30T04:41:50;96481.16;;;15.79;100.00
45731;BME280;31440;48.584;13.460;2023-07-30T04:48:01;96486.56;;;15.25;100.00
45731;BME280;31440;48.584;13.460;2023-07-30T04:51:06;96495.09;;;15.54;100.00
45731;BME280;31440;48.584;13.460;2023-07-30T04:54:11;96490.47;;;15.58;100.00
45731;BME280;31440;48.584;13.460;2023-07-30T04:57:15;96493.13;;;15.83;100.00
45731;BME280;31440;48.584;13.460;2023-07-30T05:00:20;96489.34;;;15.75;100.00
45731;BME280;31440;48.584;13.460;2023-07-30T05:03:25;96490.03;;;16.02;100.00
45731;BME280;31440;48.584;13.460;2023-07-30T05:06:29;96500.41;;;15.27;100.00
45731;BME280;31440;48.584;13.460;2023-07-30T05:09:34;96494.06;;;15.69;100.00
45731;BME280;31440;48.584;13.460;2023-07-30T05:12:38;96491.97;;;15.87;100.00
45731;BME280;31440;48.584;13.460;2023-07-30T05:15:43;96487.41;;;15.51;100.00
45731;BME280;31440;48.584;13.460;2023-07-30T05:18:48;96490.19;;;15.10;100.00
45731;BME280;31440;48.584;13.460;2023-07-30T05:21:52;96507.41;;;15.14;100.00
45731;BME280;31440;48.584;13.460;2023-07-30T05:24:57;96497.06;;;15.38;100.00
45731;BME280;31440;48.584;13.460;2023-07-30T05:28:02;96501.06;;;15.44;100.00
45731;BME280;31440;48.584;13.460;2023-07-30T05:31:08;96483.13;;;15.37;100.00
45731;BME280;31440;48.584;13.460;2023-07-30T05:34:12;96519.84;;;14.98;100.00
45731;BME280;31440;48.584;13.460;2023-07-30T05:37:17;96523.28;;;15.25;100.00
45731;BME280;31440;48.584;13.460;2023-07-30T05:40:22;96524.59;;;15.58;100.00
45731;BME280;31440;48.584;13.460;2023-07-30T05:43:26;96522.13;;;15.29;100.00
45731;BME280;31440;48.584;13.460;2023-07-30T05:46:31;96524.56;;;15.32;100.00
45731;BME280;31440;48.584;13.460;2023-07-30T05:49:35;96527.53;;;15.53;100.00
45731;BME280;31440;48.584;13.460;2023-07-30T05:52:40;96533.31;;;15.06;100.00
45731;BME280;31440;48.584;13.460;2023-07-30T05:55:45;96538.19;;;15.90;100.00
45731;BME280;31440;48.584;13.460;2023-07-30T05:58:50;96540.78;;;16.28;100.00
45731;BME280;31440;48.584;13.460;2023-07-30T06:01:56;96542.72;;;16.37;100.00
45731;BME280;31440;48.584;13.460;2023-07-30T06:05:00;96549.94;;;15.97;100.00
45731;BME280;31440;48.584;13.460;2023-07-30T06:08:05;96554.00;;;16.52;100.00
45731;BME280;31440;48.584;13.460;2023-07-30T06:11:10;96561.66;;;16.55;100.00
45731;BME280;31440;48.584;13.460;2023-07-30T06:14:14;96570.00;;;15.98;100.00
45731;BME280;31440;48.584;13.460;2023-07-30T06:17:19;96575.97;;;16.25;100.00
45731;BME280;31440;48.584;13.460;2023-07-30T06:20:23;96580.63;;;16.09;100.00
45731;BME280;31440;48.584;13.460;2023-07-30T06:23:30;96569.38;;;15.94;100.00
45731;BME280;31440;48.584;13.460;2023-07-30T06:26:34;96582.41;;;15.96;100.00
45731;BME280;31440;48.584;13.460;2023-07-30T06:29:39;96593.19;;;15.66;100.00
45731;BME280;31440;48.584;13.460;2023-07-30T06:32:44;96594.03;;;16.42;100.00
45731;BME280;31440;48.584;13.460;2023-07-30T06:35:50;96580.06;;;16.29;100.00
45731;BME280;31440;48.584;13.460;2023-07-30T06:38:54;96598.16;;;16.08;100.00
45731;BME280;31440;48.584;13.460;2023-07-30T06:41:59;96604.28;;;16.71;100.00
45731;BME280;31440;48.584;13.460;2023-07-30T06:45:04;96612.09;;;16.47;100.00
45731;BME280;31440;48.584;13.460;2023-07-30T06:48:09;96604.53;;;17.04;100.00
45731;BME280;31440;48.584;13.460;2023-07-30T06:51:13;96611.97;;;16.74;100.00
45731;BME280;31440;48.584;13.460;2023-07-30T06:54:18;96616.09;;;16.65;100.00
45731;BME280;31440;48.584;13.460;2023-07-30T06:57:23;96614.28;;;16.79;100.00
45731;BME280;31440;48.584;13.460;2023-07-30T07:00:27;96614.53;;;16.37;100.00
45731;BME280;31440;48.584;13.460;2023-07-30T07:03:32;96622.63;;;16.47;100.00
45731;BME280;31440;48.584;13.460;2023-07-30T07:06:37;96627.34;;;16.55;100.00
45731;BME280;31440;48.584;13.460;2023-07-30T07:09:41;96626.31;;;16.70;100.00
45731;BME280;31440;48.584;13.460;2023-07-30T07:12:46;96633.34;;;16.44;100.00
45731;BME280;31440;48.584;13.460;2023-07-30T07:18:57;96631.22;;;16.36;100.00
45731;BME280;31440;48.584;13.460;2023-07-30T07:22:05;96634.72;;;16.24;100.00
45731;BME280;31440;48.584;13.460;2023-07-30T07:25:10;96639.13;;;15.98;100.00
45731;BME280;31440;48.584;13.460;2023-07-30T07:31:23;96607.19;;;16.04;100.00
45731;BME280;31440;48.584;13.460;2023-07-30T07:34:27;96616.75;;;16.56;100.00
45731;BME280;31440;48.584;13.460;2023-07-30T07:37:32;96613.50;;;16.15;100.00
45731;BME280;31440;48.584;13.460;2023-07-30T07:40:38;96615.69;;;16.59;100.00
45731;BME280;31440;48.584;13.460;2023-07-30T07:43:45;96622.31;;;16.39;100.00
45731;BME280;31440;48.584;13.460;2023-07-30T07:46:50;96615.06;;;16.68;100.00
45731;BME280;31440;48.584;13.460;2023-07-30T07:49:55;96618.44;;;16.94;100.00
45731;BME280;31440;48.584;13.460;2023-07-30T07:52:59;96613.81;;;16.97;100.00
45731;BME280;31440;48.584;13.460;2023-07-30T07:56:04;96625.31;;;17.20;100.00
45731;BME280;31440;48.584;13.460;2023-07-30T07:59:08;96618.84;;;16.64;100.00
45731;BME280;31440;48.584;13.460;2023-07-30T08:02:13;96620.63;;;16.63;100.00
45731;BME280;31440;48.584;13.460;2023-07-30T08:05:18;96618.75;;;16.65;100.00
45731;BME280;31440;48.584;13.460;2023-07-30T08:08:25;96617.84;;;16.77;100.00
45731;BME280;31440;48.584;13.460;2023-07-30T08:14:36;96614.53;;;17.60;100.00
45731;BME280;31440;48.584;13.460;2023-07-30T08:17:41;96613.66;;;17.11;100.00
45731;BME280;31440;48.584;13.460;2023-07-30T08:20:45;96606.50;;;16.77;100.00
45731;BME280;31440;48.584;13.460;2023-07-30T08:23:50;96608.47;;;17.23;100.00
45731;BME280;31440;48.584;13.460;2023-07-30T08:26:55;96612.34;;;16.93;100.00
45731;BME280;31440;48.584;13.460;2023-07-30T08:29:59;96612.53;;;17.03;100.00
45731;BME280;31440;48.584;13.460;2023-07-30T08:33:04;96608.00;;;17.05;100.00
45731;BME280;31440;48.584;13.460;2023-07-30T08:36:08;96615.84;;;17.65;100.00
45731;BME280;31440;48.584;13.460;2023-07-30T08:39:13;96614.78;;;17.20;100.00
45731;BME280;31440;48.584;13.460;2023-07-30T08:45:24;96613.22;;;18.11;100.00
45731;BME280;31440;48.584;13.460;2023-07-30T08:48:29;96605.88;;;17.34;100.00
45731;BME280;31440;48.584;13.460;2023-07-30T08:51:36;96608.75;;;18.01;100.00
45731;BME280;31440;48.584;13.460;2023-07-30T08:54:42;96608.72;;;17.90;100.00
45731;BME280;31440;48.584;13.460;2023-07-30T08:57:49;96604.66;;;17.86;100.00
45731;BME280;31440;48.584;13.460;2023-07-30T09:00:58;96597.91;;;18.61;100.00
45731;BME280;31440;48.584;13.460;2023-07-30T09:04:04;96586.94;;;19.10;100.00
45731;BME280;31440;48.584;13.460;2023-07-30T09:07:11;96591.03;;;19.78;100.00
45731;BME280;31440;48.584;13.460;2023-07-30T09:10:16;96588.84;;;20.56;100.00
45731;BME280;31440;48.584;13.460;2023-07-30T09:16:34;96582.47;;;20.37;100.00
45731;BME280;31440;48.584;13.460;2023-07-30T09:19:39;96583.81;;;20.01;100.00
45731;BME280;31440;48.584;13.460;2023-07-30T09:22:45;96579.94;;;20.57;100.00
45731;BME280;31440;48.584;13.460;2023-07-30T09:25:57;96590.34;;;20.88;100.00
45731;BME280;31440;48.584;13.460;2023-07-30T09:29:07;96579.84;;;21.75;100.00
45731;BME280;31440;48.584;13.460;2023-07-30T09:32:12;96580.19;;;20.94;100.00
45731;BME280;31440;48.584;13.460;2023-07-30T09:35:17;96580.97;;;21.63;100.00
45731;BME280;31440;48.584;13.460;2023-07-30T09:38:22;96582.47;;;22.23;100.00
45731;BME280;31440;48.584;13.460;2023-07-30T09:41:26;96579.75;;;22.33;100.00
45731;BME280;31440;48.584;13.460;2023-07-30T09:44:32;96574.88;;;22.38;100.00
45731;BME280;31440;48.584;13.460;2023-07-30T09:47:37;96575.81;;;22.00;100.00
45731;BME280;31440;48.584;13.460;2023-07-30T09:50:43;96566.91;;;21.53;100.00
45731;BME280;31440;48.584;13.460;2023-07-30T09:53:47;96571.63;;;22.07;100.00
45731;BME280;31440;48.584;13.460;2023-07-30T09:56:52;96564.19;;;22.57;100.00
45731;BME280;31440;48.584;13.460;2023-07-30T09:59:57;96563.06;;;22.60;100.00
45731;BME280;31440;48.584;13.460;2023-07-30T10:03:07;96570.56;;;22.74;100.00
45731;BME280;31440;48.584;13.460;2023-07-30T10:06:14;96564.66;;;22.43;100.00
45731;BME280;31440;48.584;13.460;2023-07-30T10:09:20;96558.91;;;21.91;100.00
45731;BME280;31440;48.584;13.460;2023-07-30T10:12:31;96550.28;;;21.80;100.00
45731;BME280;31440;48.584;13.460;2023-07-30T10:15:39;96551.25;;;23.45;100.00
45731;BME280;31440;48.584;13.460;2023-07-30T10:18:44;96553.66;;;23.38;100.00
45731;BME280;31440;48.584;13.460;2023-07-30T10:21:48;96549.72;;;23.60;100.00
45731;BME280;31440;48.584;13.460;2023-07-30T10:28:04;96571.44;;;20.53;100.00
45731;BME280;31440;48.584;13.460;2023-07-30T10:31:09;96565.94;;;20.85;100.00
45731;BME280;31440;48.584;13.460;2023-07-30T10:34:16;96570.09;;;20.47;100.00
45731;BME280;31440;48.584;13.460;2023-07-30T10:37:21;96583.28;;;20.28;100.00
45731;BME280;31440;48.584;13.460;2023-07-30T10:40:25;96574.81;;;20.13;100.00
45731;BME280;31440;48.584;13.460;2023-07-30T10:43:34;96590.28;;;19.56;100.00
45731;BME280;31440;48.584;13.460;2023-07-30T10:46:39;96579.91;;;19.64;100.00
45731;BME280;31440;48.584;13.460;2023-07-30T10:49:44;96577.75;;;20.10;100.00
45731;BME280;31440;48.584;13.460;2023-07-30T10:52:51;96583.25;;;19.66;100.00
45731;BME280;31440;48.584;13.460;2023-07-30T10:55:58;96573.31;;;20.41;100.00
45731;BME280;31440;48.584;13.460;2023-07-30T10:59:05;96566.44;;;21.09;100.00
45731;BME280;31440;48.584;13.460;2023-07-30T11:02:10;96571.63;;;21.88;100.00
45731;BME280;31440;48.584;13.460;2023-07-30T11:05:16;96568.41;;;23.50;100.00
45731;BME280;31440;48.584;13.460;2023-07-30T11:08:41;96566.91;;;24.09;100.00
45731;BME280;31440;48.584;13.460;2023-07-30T11:11:46;96572.25;;;23.74;100.00
45731;BME280;31440;48.584;13.460;2023-07-30T11:14:51;96568.53;;;23.84;100.00
45731;BME280;31440;48.584;13.460;2023-07-30T11:17:56;96560.72;;;24.94;100.00
45731;BME280;31440;48.584;13.460;2023-07-30T11:21:06;96565.56;;;23.70;100.00
45731;BME280;31440;48.584;13.460;2023-07-30T11:24:10;96567.56;;;23.05;100.00
45731;BME280;31440;48.584;13.460;2023-07-30T11:27:15;96567.03;;;23.01;100.00
45731;BME280;31440;48.584;13.460;2023-07-30T11:30:20;96573.38;;;22.63;100.00
45731;BME280;31440;48.584;13.460;2023-07-30T11:33:24;96570.38;;;23.31;100.00
45731;BME280;31440;48.584;13.460;2023-07-30T11:36:29;96573.75;;;23.23;100.00
45731;BME280;31440;48.584;13.460;2023-07-30T11:39:34;96574.28;;;23.26;100.00
45731;BME280;31440;48.584;13.460;2023-07-30T11:42:39;96571.22;;;26.19;100.00
45731;BME280;31440;48.584;13.460;2023-07-30T11:45:47;96570.19;;;24.89;100.00
45731;BME280;31440;48.584;13.460;2023-07-30T11:48:53;96567.94;;;23.55;100.00
45731;BME280;31440;48.584;13.460;2023-07-30T11:52:08;96589.50;;;20.88;100.00
45731;BME280;31440;48.584;13.460;2023-07-30T11:55:13;96604.41;;;19.23;100.00
45731;BME280;31440;48.584;13.460;2023-07-30T11:58:18;96651.81;;;17.77;100.00
45731;BME280;31440;48.584;13.460;2023-07-30T12:01:28;96576.59;;;18.31;100.00
45731;BME280;31440;48.584;13.460;2023-07-30T12:04:45;96587.13;;;18.75;100.00
45731;BME280;31440;48.584;13.460;2023-07-30T12:07:56;96599.16;;;19.75;100.00
45731;BME280;31440;48.584;13.460;2023-07-30T12:11:05;96635.28;;;18.89;100.00
45731;BME280;31440;48.584;13.460;2023-07-30T12:14:10;96630.75;;;18.35;100.00
45731;BME280;31440;48.584;13.460;2023-07-30T12:17:15;96633.09;;;17.69;100.00
45731;BME280;31440;48.584;13.460;2023-07-30T12:20:20;96602.72;;;17.76;100.00
45731;BME280;31440;48.584;13.460;2023-07-30T12:23:24;96594.94;;;17.86;100.00
45731;BME280;31440;48.584;13.460;2023-07-30T12:26:29;96583.91;;;17.81;100.00
45731;BME280;31440;48.584;13.460;2023-07-30T12:29:34;96571.81;;;18.25;100.00
45731;BME280;31440;48.584;13.460;2023-07-30T12:32:39;96571.16;;;18.10;100.00
45731;BME280;31440;48.584;13.460;2023-07-30T12:35:44;96573.78;;;17.29;100.00
45731;BME280;31440;48.584;13.460;2023-07-30T12:38:48;96576.44;;;17.64;100.00
45731;BME280;31440;48.584;13.460;2023-07-30T12:41:53;96579.94;;;16.56;100.00
45731;BME280;31440;48.584;13.460;2023-07-30T12:44:57;96563.16;;;17.54;100.00
45731;BME280;31440;48.584;13.460;2023-07-30T12:48:02;96567.41;;;17.44;100.00
45731;BME280;31440;48.584;13.460;2023-07-30T12:51:07;96571.03;;;17.54;100.00
45731;BME280;31440;48.584;13.460;2023-07-30T12:54:11;96562.09;;;17.57;100.00
45731;BME280;31440;48.584;13.460;2023-07-30T12:57:16;96559.28;;;17.47;100.00
45731;BME280;31440;48.584;13.460;2023-07-30T13:02:19;96562.75;;;18.16;100.00
45731;BME280;31440;48.584;13.460;2023-07-30T13:05:24;96554.38;;;19.00;100.00
45731;BME280;31440;48.584;13.460;2023-07-30T13:08:29;96557.69;;;20.38;100.00
45731;BME280;31440;48.584;13.460;2023-07-30T13:11:34;96559.50;;;21.37;100.00
45731;BME280;31440;48.584;13.460;2023-07-30T13:14:39;96565.81;;;22.31;100.00
45731;BME280;31440;48.584;13.460;2023-07-30T13:17:44;96556.56;;;23.62;100.00
45731;BME280;31440;48.584;13.460;2023-07-30T13:20:48;96576.00;;;22.26;100.00
45731;BME280;31440;48.584;13.460;2023-07-30T13:23:54;96577.94;;;23.79;100.00
45731;BME280;31440;48.584;13.460;2023-07-30T13:26:58;96580.63;;;23.43;100.00
45731;BME280;31440;48.584;13.460;2023-07-30T13:30:03;96578.66;;;22.73;100.00
45731;BME280;31440;48.584;13.460;2023-07-30T13:33:08;96579.16;;;22.49;100.00
45731;BME280;31440;48.584;13.460;2023-07-30T13:36:13;96585.44;;;22.48;100.00
45731;BME280;31440;48.584;13.460;2023-07-30T13:39:18;96579.19;;;21.35;100.00
45731;BME280;31440;48.584;13.460;2023-07-30T13:42:25;96563.09;;;21.75;100.00
45731;BME280;31440;48.584;13.460;2023-07-30T13:45:29;96568.28;;;21.38;100.00
45731;BME280;31440;48.584;13.460;2023-07-30T13:48:34;96576.66;;;21.43;100.00
45731;BME280;31440;48.584;13.460;2023-07-30T13:51:39;96579.13;;;22.21;100.00
45731;BME280;31440;48.584;13.460;2023-07-30T13:54:44;96582.09;;;21.61;100.00
45731;BME280;31440;48.584;13.460;2023-07-30T13:57:49;96586.09;;;20.67;100.00
45731;BME280;31440;48.584;13.460;2023-07-30T14:00:54;96587.75;;;20.58;100.00
45731;BME280;31440;48.584;13.460;2023-07-30T14:03:59;96593.44;;;20.33;100.00
45731;BME280;31440;48.584;13.460;2023-07-30T14:07:04;96587.13;;;20.85;100.00
45731;BME280;31440;48.584;13.460;2023-07-30T14:10:09;96581.78;;;21.73;100.00
45731;BME280;31440;48.584;13.460;2023-07-30T14:13:13;96577.91;;;21.48;100.00
45731;BME280;31440;48.584;13.460;2023-07-30T14:16:18;96589.19;;;21.41;100.00
45731;BME280;31440;48.584;13.460;2023-07-30T14:19:23;96573.00;;;21.82;100.00
45731;BME280;31440;48.584;13.460;2023-07-30T14:22:27;96585.44;;;22.85;100.00
45731;BME280;31440;48.584;13.460;2023-07-30T14:25:32;96584.69;;;22.65;100.00
45731;BME280;31440;48.584;13.460;2023-07-30T14:28:37;96587.50;;;22.64;100.00
45731;BME280;31440;48.584;13.460;2023-07-30T14:31:41;96585.66;;;22.64;100.00
45731;BME280;31440;48.584;13.460;2023-07-30T14:34:47;96582.50;;;22.88;100.00
45731;BME280;31440;48.584;13.460;2023-07-30T14:37:51;96586.84;;;21.96;100.00
45731;BME280;31440;48.584;13.460;2023-07-30T14:40:56;96586.81;;;21.28;100.00
45731;BME280;31440;48.584;13.460;2023-07-30T14:44:01;96601.63;;;20.81;100.00
45731;BME280;31440;48.584;13.460;2023-07-30T14:47:05;96608.94;;;20.47;100.00
45731;BME280;31440;48.584;13.460;2023-07-30T14:50:12;96602.94;;;19.94;100.00
45731;BME280;31440;48.584;13.460;2023-07-30T14:53:17;96615.44;;;21.04;100.00
45731;BME280;31440;48.584;13.460;2023-07-30T14:56:21;96611.06;;;21.91;99.16
45731;BME280;31440;48.584;13.460;2023-07-30T14:59:26;96617.78;;;22.24;90.19
45731;BME280;31440;48.584;13.460;2023-07-30T15:02:31;96615.84;;;23.18;84.94
45731;BME280;31440;48.584;13.460;2023-07-30T15:05:35;96615.41;;;21.73;88.01
45731;BME280;31440;48.584;13.460;2023-07-30T15:08:42;96628.16;;;22.45;87.34
45731;BME280;31440;48.584;13.460;2023-07-30T15:11:47;96625.75;;;22.61;81.38
45731;BME280;31440;48.584;13.460;2023-07-30T15:14:51;96607.81;;;23.10;80.09
45731;BME280;31440;48.584;13.460;2023-07-30T15:17:56;96615.53;;;22.19;80.43
45731;BME280;31440;48.584;13.460;2023-07-30T15:21:01;96619.78;;;22.96;79.12
45731;BME280;31440;48.584;13.460;2023-07-30T15:24:05;96617.63;;;23.00;77.27
45731;BME280;31440;48.584;13.460;2023-07-30T15:27:10;96614.91;;;22.45;84.17
45731;BME280;31440;48.584;13.460;2023-07-30T15:33:21;96622.41;;;22.69;78.00
45731;BME280;31440;48.584;13.460;2023-07-30T15:36:26;96613.03;;;22.74;82.35
45731;BME280;31440;48.584;13.460;2023-07-30T15:39:30;96622.47;;;23.14;83.12
45731;BME280;31440;48.584;13.460;2023-07-30T15:42:38;96629.88;;;22.36;81.23
45731;BME280;31440;48.584;13.460;2023-07-30T15:45:43;96624.25;;;22.96;77.34
45731;BME280;31440;48.584;13.460;2023-07-30T15:48:48;96625.91;;;22.97;75.62
45731;BME280;31440;48.584;13.460;2023-07-30T15:51:53;96618.09;;;22.95;78.54
45731;BME280;31440;48.584;13.460;2023-07-30T15:54:58;96610.66;;;21.57;92.14
45731;BME280;31440;48.584;13.460;2023-07-30T15:58:04;96601.75;;;22.06;87.68
45731;BME280;31440;48.584;13.460;2023-07-30T16:01:08;96610.94;;;22.21;84.87
45731;BME280;31440;48.584;13.460;2023-07-30T16:04:14;96610.69;;;21.86;87.75
45731;BME280;31440;48.584;13.460;2023-07-30T16:07:19;96612.06;;;22.09;89.72
45731;BME280;31440;48.584;13.460;2023-07-30T16:10:23;96606.09;;;22.54;90.05
45731;BME280;31440;48.584;13.460;2023-07-30T16:13:28;96605.91;;;22.09;93.97
45731;BME280;31440;48.584;13.460;2023-07-30T16:16:35;96578.47;;;22.00;93.47
45731;BME280;31440;48.584;13.460;2023-07-30T16:19:42;96597.69;;;21.92;91.64
45731;BME280;31440;48.584;13.460;2023-07-30T16:22:47;96593.34;;;22.11;96.62
45731;BME280;31440;48.584;13.460;2023-07-30T16:25:52;96599.22;;;22.61;91.18
45731;BME280;31440;48.584;13.460;2023-07-30T16:28:56;96599.78;;;22.08;95.79
45731;BME280;31440;48.584;13.460;2023-07-30T16:32:01;96604.97;;;21.71;94.31